• Join FlightAware (Why Join?)
  • Login
  • US Flag 
Gobble Gobble! 
12:42AM EST


 

Airport Tracker/Info


-or-


 

Live Flight TrackerFlight Track Log ✈ EGF3476 ✈ 11-May-2013 ✈ KCHS - KMIA

Flight Track Log - Related Links

Times and Time Zones

All times are in EDT time to prevent confusion due to time zone crossing. See the EGF3476 flight status page for this flight to view local times or setup timezone preferences in your user account.

Time Position Orientation Groundspeed Altitude Reporting Facility
EDT Latitude Longitude Course Direction KTS MPH feet Rate Location/Type
07:04AM 32.8102 -80.2080 190° South  Level FlightAware Approximate
07:04AM 32.7978 -80.1125 211° Southwest 239 275 3,900  Level Jacksonville Center
07:05AM 32.7069 -80.2409 194° South  Level FlightAware Approximate
07:05AM 32.7464 -80.1558 215° Southwest 239 275 6,400  Level Jacksonville Center
07:06AM 32.6010 -80.2745 203° Southwest  Level FlightAware Approximate
07:06AM 32.6869 -80.2022 213° Southwest 244 281 8,900  Level Jacksonville Center
07:07AM 32.5017 -80.3300 206° Southwest  Level FlightAware Approximate
07:07AM 32.6233 -80.2558 215° Southwest 263 303 10,300  Level Jacksonville Center
07:08AM 32.4059 -80.3935 211° Southwest  Level FlightAware Approximate
07:08AM 32.5472 -80.3097 211° Southwest 295 339 11,600  Level Jacksonville Center
07:09AM 32.3119 -80.4606 211° Southwest  Level FlightAware Approximate
07:09AM 32.4558 -80.3344 193° South 320 368 12,800  Level Jacksonville Center
07:10AM 32.3603 -80.3569 191° South 341 392 14,800 1,980 Climbing Jacksonville Center
07:11AM 32.2669 -80.3817 193° South 352 405 16,800 1,860 Climbing Jacksonville Center
07:12AM 32.1797 -80.4061 193° South 352 405 18,600 1,620 Climbing Jacksonville Center
07:13AM 32.0925 -80.4256 191° South 323 372 20,100 1,500 Climbing Jacksonville Center
07:14AM 32.0072 -80.4500 194° South 315 362 21,700 1,500 Climbing Jacksonville Center
07:15AM 31.9139 -80.4719 191° South 325 374 23,100 1,380 Climbing Jacksonville Center
07:16AM 31.8306 -80.4914 191° South 353 406 24,500 1,500 Climbing Jacksonville Center
07:17AM 31.7267 -80.5183 192° South 353 406 26,100 1,560 Climbing Jacksonville Center
07:18AM 31.6311 -80.5428 192° South 353 406 27,600 1,500 Climbing Jacksonville Center
07:19AM 31.5378 -80.5719 195° South 353 406 29,100 1,500 Climbing Jacksonville Center
07:20AM 31.4400 -80.5914 190° South 353 406 30,600 1,320 Climbing Jacksonville Center
07:21AM 31.3444 -80.6158 192° South 353 406 31,800 1,080 Climbing Jacksonville Center
07:22AM 31.2447 -80.6400 192° South 365 420 32,800 960 Climbing Jacksonville Center
07:23AM 31.1383 -80.6475 183° South 370 426 33,800 960 Climbing Jacksonville Center
07:24AM 31.0339 -80.6522 182° South 375 432 34,800 960 Climbing Jacksonville Center
07:25AM 30.9297 -80.6619 185° South 386 444 35,800 600 Climbing Jacksonville Center
07:26AM 30.8169 -80.6672 182° South 386 444 36,000 60 Climbing Jacksonville Center
07:27AM 30.7275 -80.6742 184° South 391 450 36,000 -60 Level Jacksonville Center
07:28AM 30.6022 -80.6794 182° South 402 463 35,900  Descending Jacksonville Center
07:29AM 30.4875 -80.6892 184° South 414 476 36,000  Climbing Jacksonville Center
07:30AM 30.3625 -80.6969 183° South 431 496 36,000  Level Jacksonville Center
07:31AM 30.2414 -80.7047 183° South 437 503 36,000 -60 Level Jacksonville Center
07:32AM 30.1186 -80.7147 184° South 443 510 35,900  Descending Jacksonville Center
07:33AM 30.0036 -80.7194 182° South 443 510 36,000  Climbing Jacksonville Center
07:34AM 29.8808 -80.7272 183° South 443 510 36,000  Level Jacksonville Center
07:35AM 29.6561 -80.7403 183° South 445 512 36,000  Level Miami Center
07:36AM 29.5331 -80.7478 183° South 445 512 36,000  Level Miami Center
07:37AM 29.4242 -80.7583 185° South 445 512 36,000  Level Miami Center
07:38AM 29.2997 -80.7347 171° South 445 512 36,000  Level Miami Center
07:39AM 29.1775 -80.7092 170° South 445 512 36,000  Level Miami Center
07:40AM 29.0531 -80.6833 170° South 451 519 36,000  Level Miami Center
07:41AM 28.9264 -80.6578 170° South 457 526 36,000  Level Miami Center
07:42AM 28.7914 -80.6317 170° South 457 526 36,000  Level Miami Center
07:43AM 28.6753 -80.6089 170° South 467 537 36,000  Level Miami Center
07:44AM 28.5467 -80.5808 169° South 467 537 36,000  Level Miami Center
07:45AM 28.4117 -80.5553 171° South 467 537 36,000  Level Miami Center
07:46AM 28.2933 -80.5278 168° South 474 545 36,000  Level Miami Center
07:47AM 28.1647 -80.5047 171° South 474 545 36,000  Level Miami Center
07:48AM 28.0422 -80.4794 170° South 456 525 36,000 -60 Level Miami Center
07:49AM 27.9111 -80.4567 171° South 473 544 35,900 -1,500 Descending Miami Center
07:50AM 27.7658 -80.4286 170° South 488 562 33,100 -2,880 Descending Miami Center
07:51AM 27.6392 -80.4033 170° South 481 554 30,200 -2,940 Descending Miami Center
07:52AM 27.5122 -80.3786 170° South 471 542 27,300 -2,760 Descending Miami Center
07:53AM 27.3856 -80.3558 171° South 465 535 24,700 -1,680 Descending Miami Center
07:54AM 27.2631 -80.3264 168° South 465 535 24,000 -420 Descending Miami Center
07:55AM 27.1431 -80.2786 160° South 453 521 23,900 -900 Descending Miami Center
07:56AM 27.0253 -80.2308 160° South 453 521 22,200 -1,740 Descending Miami Center
07:57AM 26.9072 -80.1831 160° South 458 527 20,500 -1,680 Descending Miami Center
07:58AM 26.8122 -80.1386 157° South 438 504 18,900 -1,800 Descending Miami Center
07:59AM 26.6900 -80.0908 161° South 424 488 16,900 -2,280 Descending Miami Center
08:00AM 26.5736 -80.0669 170° South 419 482 14,400 -2,220 Descending Miami Center
08:01AM 26.4881 -80.0575 174° South 401 461 13,100 -1,440 Descending Miami Center
08:01AM 26.4633 -80.0500 165° South 411 473 13,000 -300 Descending Miami Center
08:02AM 26.3842 -80.0386 173° South 381 438 12,800 -420 Descending Miami Center
08:02AM 26.3572 -80.0331 170° South 393 452 12,600 -1,020 Descending Miami Center
08:03AM 26.2864 -80.0219 172° South 391 450 11,900 -1,020 Descending Miami Center
08:03AM 26.2614 -80.0167 169° South 387 445 11,600 -1,200 Descending Miami Center
08:04AM 26.1775 -80.0353 191° South 385 443 10,700 -1,140 Descending Miami Center
08:04AM 26.1544 -80.0369 184° South 379 436 10,500 -660 Descending Miami Center
08:05AM 26.0681 -80.0672 197° South 377 434 10,000 -480 Descending Miami Center
08:06AM 25.9736 -80.0947 195° South 293 337 9,700 -960 Descending Miami Center
08:07AM 25.9239 -80.1625 231° Southwest 279 321 8,100 -960 Descending Miami Center
08:08AM 25.8931 -80.2403 246° West 282 325 7,700 -360 Descending Miami Center